sensor_id;sensor_type;location;lat;lon;timestamp;pressure;altitude;pressure_sealevel;temperature;humidity
48964;BME280;34776;48.180;16.420;2023-06-26T00:01:02;99824.69;;;20.72;58.45
48964;BME280;34776;48.180;16.420;2023-06-26T00:03:27;99821.97;;;20.72;58.13
48964;BME280;34776;48.180;16.420;2023-06-26T00:05:54;99831.81;;;20.73;58.46
48964;BME280;34776;48.180;16.420;2023-06-26T00:08:19;99824.69;;;20.72;58.54
48964;BME280;34776;48.180;16.420;2023-06-26T00:10:44;99831.09;;;20.71;58.33
48964;BME280;34776;48.180;16.420;2023-06-26T00:13:11;99831.09;;;20.71;58.44
48964;BME280;34776;48.180;16.420;2023-06-26T00:15:37;99825.97;;;20.68;58.16
48964;BME280;34776;48.180;16.420;2023-06-26T00:18:03;99833.34;;;20.66;58.28
48964;BME280;34776;48.180;16.420;2023-06-26T00:20:28;99835.34;;;20.64;58.36
48964;BME280;34776;48.180;16.420;2023-06-26T00:22:54;99828.25;;;20.63;58.68
48964;BME280;34776;48.180;16.420;2023-06-26T00:25:20;99842.72;;;20.62;58.40
48964;BME280;34776;48.180;16.420;2023-06-26T00:27:46;99840.03;;;20.62;58.71
48964;BME280;34776;48.180;16.420;2023-06-26T00:30:11;99839.50;;;20.58;58.64
48964;BME280;34776;48.180;16.420;2023-06-26T00:32:37;99835.19;;;20.56;58.74
48964;BME280;34776;48.180;16.420;2023-06-26T00:35:02;99834.50;;;20.54;58.78
48964;BME280;34776;48.180;16.420;2023-06-26T00:37:28;99834.75;;;20.51;58.59
48964;BME280;34776;48.180;16.420;2023-06-26T00:39:53;99833.19;;;20.48;58.82
48964;BME280;34776;48.180;16.420;2023-06-26T00:42:18;99830.63;;;20.46;58.94
48964;BME280;34776;48.180;16.420;2023-06-26T00:44:44;99836.16;;;20.45;58.93
48964;BME280;34776;48.180;16.420;2023-06-26T00:47:11;99832.75;;;20.43;58.95
48964;BME280;34776;48.180;16.420;2023-06-26T00:49:39;99837.59;;;20.39;58.90
48964;BME280;34776;48.180;16.420;2023-06-26T00:52:04;99825.38;;;20.35;58.64
48964;BME280;34776;48.180;16.420;2023-06-26T00:54:31;99822.94;;;20.32;59.07
48964;BME280;34776;48.180;16.420;2023-06-26T00:56:57;99823.13;;;20.31;59.27
48964;BME280;34776;48.180;16.420;2023-06-26T00:59:22;99820.81;;;20.26;59.34
48964;BME280;34776;48.180;16.420;2023-06-26T01:01:47;99821.97;;;20.23;59.35
48964;BME280;34776;48.180;16.420;2023-06-26T01:04:13;99815.97;;;20.20;59.46
48964;BME280;34776;48.180;16.420;2023-06-26T01:06:44;99817.25;;;20.16;59.36
48964;BME280;34776;48.180;16.420;2023-06-26T01:09:15;99816.53;;;20.14;59.61
48964;BME280;34776;48.180;16.420;2023-06-26T01:11:41;99815.16;;;20.10;59.69
48964;BME280;34776;48.180;16.420;2023-06-26T01:14:06;99812.59;;;20.08;59.88
48964;BME280;34776;48.180;16.420;2023-06-26T01:16:32;99814.56;;;20.06;59.75
48964;BME280;34776;48.180;16.420;2023-06-26T01:18:59;99821.09;;;20.03;59.61
48964;BME280;34776;48.180;16.420;2023-06-26T01:21:24;99814.13;;;20.01;59.72
48964;BME280;34776;48.180;16.420;2023-06-26T01:24:16;99807.16;;;19.98;60.20
48964;BME280;34776;48.180;16.420;2023-06-26T01:26:47;99808.16;;;19.97;59.53
48964;BME280;34776;48.180;16.420;2023-06-26T01:29:15;99807.59;;;19.94;59.95
48964;BME280;34776;48.180;16.420;2023-06-26T01:31:42;99804.03;;;19.93;59.88
48964;BME280;34776;48.180;16.420;2023-06-26T01:34:09;99806.88;;;19.92;59.85
48964;BME280;34776;48.180;16.420;2023-06-26T01:36:34;99808.00;;;19.89;60.01
48964;BME280;34776;48.180;16.420;2023-06-26T01:39:00;99810.00;;;19.87;59.89
48964;BME280;34776;48.180;16.420;2023-06-26T01:41:25;99801.19;;;19.85;60.40
48964;BME280;34776;48.180;16.420;2023-06-26T01:46:40;99801.72;;;19.79;60.47
48964;BME280;34776;48.180;16.420;2023-06-26T01:51:42;99798.59;;;19.74;60.77
48964;BME280;34776;48.180;16.420;2023-06-26T01:54:14;99798.88;;;19.71;60.71
48964;BME280;34776;48.180;16.420;2023-06-26T01:56:43;99797.13;;;19.70;60.86
48964;BME280;34776;48.180;16.420;2023-06-26T01:59:11;99796.56;;;19.66;61.01
48964;BME280;34776;48.180;16.420;2023-06-26T02:01:39;99791.44;;;19.63;61.05
48964;BME280;34776;48.180;16.420;2023-06-26T02:04:04;99781.78;;;19.60;61.44
48964;BME280;34776;48.180;16.420;2023-06-26T02:06:29;99784.59;;;19.59;61.35
48964;BME280;34776;48.180;16.420;2023-06-26T02:08:55;99787.59;;;19.56;61.54
48964;BME280;34776;48.180;16.420;2023-06-26T02:11:22;99779.75;;;19.53;61.72
48964;BME280;34776;48.180;16.420;2023-06-26T02:13:47;99788.13;;;19.50;61.88
48964;BME280;34776;48.180;16.420;2023-06-26T02:16:12;99784.84;;;19.46;61.58
48964;BME280;34776;48.180;16.420;2023-06-26T02:18:38;99785.13;;;19.43;61.40
48964;BME280;34776;48.180;16.420;2023-06-26T02:21:03;99781.00;;;19.39;61.73
48964;BME280;34776;48.180;16.420;2023-06-26T02:23:29;99788.25;;;19.38;62.00
48964;BME280;34776;48.180;16.420;2023-06-26T02:25:54;99784.97;;;19.35;62.18
48964;BME280;34776;48.180;16.420;2023-06-26T02:28:20;99795.03;;;19.33;62.20
48964;BME280;34776;48.180;16.420;2023-06-26T02:30:45;99781.09;;;19.27;61.93
48964;BME280;34776;48.180;16.420;2023-06-26T02:33:10;99794.56;;;19.27;62.39
48964;BME280;34776;48.180;16.420;2023-06-26T02:35:36;99801.66;;;19.29;62.16
48964;BME280;34776;48.180;16.420;2023-06-26T02:38:02;99797.97;;;19.30;62.11
48964;BME280;34776;48.180;16.420;2023-06-26T02:40:27;99800.66;;;19.30;62.24
48964;BME280;34776;48.180;16.420;2023-06-26T02:42:52;99801.53;;;19.30;62.33
48964;BME280;34776;48.180;16.420;2023-06-26T02:45:18;99798.97;;;19.29;61.99
48964;BME280;34776;48.180;16.420;2023-06-26T02:47:43;99806.34;;;19.26;61.93
48964;BME280;34776;48.180;16.420;2023-06-26T02:50:09;99801.06;;;19.25;61.95
48964;BME280;34776;48.180;16.420;2023-06-26T02:52:34;99801.22;;;19.23;61.99
48964;BME280;34776;48.180;16.420;2023-06-26T02:54:59;99802.94;;;19.24;62.15
48964;BME280;34776;48.180;16.420;2023-06-26T02:57:25;99804.91;;;19.22;62.04
48964;BME280;34776;48.180;16.420;2023-06-26T02:59:51;99805.75;;;19.23;62.05
48964;BME280;34776;48.180;16.420;2023-06-26T03:02:16;99809.44;;;19.22;62.34
48964;BME280;34776;48.180;16.420;2023-06-26T03:04:41;99803.06;;;19.23;61.91
48964;BME280;34776;48.180;16.420;2023-06-26T03:07:08;99809.31;;;19.23;62.19
48964;BME280;34776;48.180;16.420;2023-06-26T03:09:33;99804.91;;;19.22;62.39
48964;BME280;34776;48.180;16.420;2023-06-26T03:11:59;99807.59;;;19.22;62.40
48964;BME280;34776;48.180;16.420;2023-06-26T03:14:24;99811.13;;;19.23;62.48
48964;BME280;34776;48.180;16.420;2023-06-26T03:16:50;99812.69;;;19.25;62.44
48964;BME280;34776;48.180;16.420;2023-06-26T03:19:17;99816.81;;;19.30;62.29
48964;BME280;34776;48.180;16.420;2023-06-26T03:21:43;99822.22;;;19.30;62.36
48964;BME280;34776;48.180;16.420;2023-06-26T03:24:08;99813.16;;;19.31;62.16
48964;BME280;34776;48.180;16.420;2023-06-26T03:26:34;99814.84;;;19.32;62.36
48964;BME280;34776;48.180;16.420;2023-06-26T03:28:59;99814.31;;;19.38;62.22
48964;BME280;34776;48.180;16.420;2023-06-26T03:31:24;99819.44;;;19.41;62.10
48964;BME280;34776;48.180;16.420;2023-06-26T03:33:49;99821.03;;;19.43;62.19
48964;BME280;34776;48.180;16.420;2023-06-26T03:36:15;99813.53;;;19.47;62.08
48964;BME280;34776;48.180;16.420;2023-06-26T03:38:41;99815.22;;;19.48;62.06
48964;BME280;34776;48.180;16.420;2023-06-26T03:41:06;99822.16;;;19.51;62.14
48964;BME280;34776;48.180;16.420;2023-06-26T03:43:31;99821.19;;;19.52;61.96
48964;BME280;34776;48.180;16.420;2023-06-26T03:45:57;99828.16;;;19.54;62.08
48964;BME280;34776;48.180;16.420;2023-06-26T03:48:22;99819.81;;;19.57;61.94
48964;BME280;34776;48.180;16.420;2023-06-26T03:50:47;99820.38;;;19.61;62.00
48964;BME280;34776;48.180;16.420;2023-06-26T03:53:13;99829.88;;;19.65;62.06
48964;BME280;34776;48.180;16.420;2023-06-26T03:55:38;99833.16;;;19.68;61.75
48964;BME280;34776;48.180;16.420;2023-06-26T03:58:04;99832.66;;;19.75;61.83
48964;BME280;34776;48.180;16.420;2023-06-26T04:00:29;99831.25;;;19.80;61.85
48964;BME280;34776;48.180;16.420;2023-06-26T04:02:55;99838.94;;;19.85;61.91
48964;BME280;34776;48.180;16.420;2023-06-26T04:05:20;99836.66;;;19.90;61.62
48964;BME280;34776;48.180;16.420;2023-06-26T04:07:45;99836.13;;;19.96;61.47
48964;BME280;34776;48.180;16.420;2023-06-26T04:10:14;99835.56;;;20.02;61.04
48964;BME280;34776;48.180;16.420;2023-06-26T04:12:39;99833.56;;;20.04;61.15
48964;BME280;34776;48.180;16.420;2023-06-26T04:15:05;99827.63;;;20.11;60.84
48964;BME280;34776;48.180;16.420;2023-06-26T04:17:30;99828.75;;;20.18;60.71
48964;BME280;34776;48.180;16.420;2023-06-26T04:19:56;99831.91;;;20.23;60.48
48964;BME280;34776;48.180;16.420;2023-06-26T04:22:21;99829.63;;;20.28;60.46
48964;BME280;34776;48.180;16.420;2023-06-26T04:24:46;99839.84;;;20.34;60.20
48964;BME280;34776;48.180;16.420;2023-06-26T04:27:12;99841.03;;;20.41;60.34
48964;BME280;34776;48.180;16.420;2023-06-26T04:29:39;99833.63;;;20.43;59.82
48964;BME280;34776;48.180;16.420;2023-06-26T04:32:04;99835.06;;;20.47;59.74
48964;BME280;34776;48.180;16.420;2023-06-26T04:34:30;99834.50;;;20.54;59.29
48964;BME280;34776;48.180;16.420;2023-06-26T04:36:59;99837.63;;;20.59;59.27
48964;BME280;34776;48.180;16.420;2023-06-26T04:39:24;99825.97;;;20.68;59.35
48964;BME280;34776;48.180;16.420;2023-06-26T04:41:50;99836.19;;;20.74;58.70
48964;BME280;34776;48.180;16.420;2023-06-26T04:44:15;99836.50;;;20.71;58.72
48964;BME280;34776;48.180;16.420;2023-06-26T04:46:40;99835.34;;;20.74;58.60
48964;BME280;34776;48.180;16.420;2023-06-26T04:49:09;99839.59;;;20.76;58.50
48964;BME280;34776;48.180;16.420;2023-06-26T04:51:35;99841.59;;;20.84;58.09
48964;BME280;34776;48.180;16.420;2023-06-26T04:54:06;99843.28;;;20.95;58.00
48964;BME280;34776;48.180;16.420;2023-06-26T04:56:32;99840.00;;;21.01;57.77
48964;BME280;34776;48.180;16.420;2023-06-26T04:58:57;99843.53;;;21.11;57.52
48964;BME280;34776;48.180;16.420;2023-06-26T05:01:23;99842.38;;;21.23;57.56
48964;BME280;34776;48.180;16.420;2023-06-26T05:03:48;99847.59;;;21.35;57.12
48964;BME280;34776;48.180;16.420;2023-06-26T05:06:14;99841.50;;;21.42;57.06
48964;BME280;34776;48.180;16.420;2023-06-26T05:08:39;99844.13;;;21.52;56.58
48964;BME280;34776;48.180;16.420;2023-06-26T05:11:05;99843.72;;;21.57;56.16
48964;BME280;34776;48.180;16.420;2023-06-26T05:13:30;99852.78;;;21.65;56.02
48964;BME280;34776;48.180;16.420;2023-06-26T05:15:55;99847.31;;;21.75;55.70
48964;BME280;34776;48.180;16.420;2023-06-26T05:18:21;99845.25;;;21.87;55.42
48964;BME280;34776;48.180;16.420;2023-06-26T05:20:46;99846.91;;;21.98;55.10
48964;BME280;34776;48.180;16.420;2023-06-26T05:23:12;99846.84;;;22.07;55.00
48964;BME280;34776;48.180;16.420;2023-06-26T05:25:38;99851.06;;;22.20;54.90
48964;BME280;34776;48.180;16.420;2023-06-26T05:28:04;99849.84;;;22.32;54.45
48964;BME280;34776;48.180;16.420;2023-06-26T05:30:35;99845.53;;;22.39;53.94
48964;BME280;34776;48.180;16.420;2023-06-26T05:33:02;99851.72;;;22.49;53.96
48964;BME280;34776;48.180;16.420;2023-06-26T05:35:28;99858.44;;;22.63;53.95
48964;BME280;34776;48.180;16.420;2023-06-26T05:37:55;99844.81;;;22.73;53.70
48964;BME280;34776;48.180;16.420;2023-06-26T05:40:21;99847.91;;;22.78;52.97
48964;BME280;34776;48.180;16.420;2023-06-26T05:42:47;99843.09;;;22.90;52.41
48964;BME280;34776;48.180;16.420;2023-06-26T05:45:12;99853.53;;;23.03;51.99
48964;BME280;34776;48.180;16.420;2023-06-26T05:47:38;99848.41;;;23.18;51.52
48964;BME280;34776;48.180;16.420;2023-06-26T05:50:03;99846.63;;;23.35;51.09
48964;BME280;34776;48.180;16.420;2023-06-26T05:52:29;99849.03;;;23.38;50.47
48964;BME280;34776;48.180;16.420;2023-06-26T05:54:56;99847.22;;;23.46;49.88
48964;BME280;34776;48.180;16.420;2023-06-26T05:57:27;99848.69;;;23.67;49.72
48964;BME280;34776;48.180;16.420;2023-06-26T05:59:53;99847.09;;;23.90;49.12
48964;BME280;34776;48.180;16.420;2023-06-26T06:02:19;99842.75;;;24.14;48.57
48964;BME280;34776;48.180;16.420;2023-06-26T06:04:44;99846.78;;;25.35;46.32
48964;BME280;34776;48.180;16.420;2023-06-26T06:07:09;99842.59;;;28.22;41.69
48964;BME280;34776;48.180;16.420;2023-06-26T06:09:35;99840.03;;;31.26;36.27
48964;BME280;34776;48.180;16.420;2023-06-26T06:12:00;99842.34;;;31.56;34.70
48964;BME280;34776;48.180;16.420;2023-06-26T06:14:27;99834.88;;;29.75;37.01
48964;BME280;34776;48.180;16.420;2023-06-26T06:16:53;99840.44;;;28.18;39.40
48964;BME280;34776;48.180;16.420;2023-06-26T06:19:18;99841.97;;;27.16;41.21
48964;BME280;34776;48.180;16.420;2023-06-26T06:21:44;99849.91;;;26.65;41.99
48964;BME280;34776;48.180;16.420;2023-06-26T06:24:09;99843.03;;;26.23;42.19
48964;BME280;34776;48.180;16.420;2023-06-26T06:26:35;99840.03;;;26.09;42.36
48964;BME280;34776;48.180;16.420;2023-06-26T06:29:00;99845.44;;;27.10;41.39
48964;BME280;34776;48.180;16.420;2023-06-26T06:31:26;99836.78;;;29.74;37.10
48964;BME280;34776;48.180;16.420;2023-06-26T06:33:53;99836.56;;;32.36;33.70
48964;BME280;34776;48.180;16.420;2023-06-26T06:36:19;99827.06;;;34.43;31.31
48964;BME280;34776;48.180;16.420;2023-06-26T06:38:44;99838.22;;;37.00;26.96
48964;BME280;34776;48.180;16.420;2023-06-26T06:41:09;99836.72;;;38.31;26.04
48964;BME280;34776;48.180;16.420;2023-06-26T06:43:35;99844.69;;;39.99;23.99
48964;BME280;34776;48.180;16.420;2023-06-26T06:46:01;99833.53;;;39.89;23.50
48964;BME280;34776;48.180;16.420;2023-06-26T06:48:26;99834.16;;;39.48;23.97
48964;BME280;34776;48.180;16.420;2023-06-26T06:50:52;99841.41;;;39.60;23.59
48964;BME280;34776;48.180;16.420;2023-06-26T06:53:18;99838.06;;;40.21;23.10
48964;BME280;34776;48.180;16.420;2023-06-26T06:55:45;99837.66;;;41.06;22.31
48964;BME280;34776;48.180;16.420;2023-06-26T06:58:11;99838.19;;;41.28;21.93
48964;BME280;34776;48.180;16.420;2023-06-26T07:00:36;99835.94;;;41.46;21.90
48964;BME280;34776;48.180;16.420;2023-06-26T07:03:02;99836.28;;;41.99;21.23
48964;BME280;34776;48.180;16.420;2023-06-26T07:05:27;99836.38;;;42.78;21.12
48964;BME280;34776;48.180;16.420;2023-06-26T07:07:52;99830.38;;;43.77;19.54
48964;BME280;34776;48.180;16.420;2023-06-26T07:10:18;99832.03;;;43.78;19.74
48964;BME280;34776;48.180;16.420;2023-06-26T07:12:43;99837.50;;;43.89;19.73
48964;BME280;34776;48.180;16.420;2023-06-26T07:15:09;99839.53;;;44.07;18.66
48964;BME280;34776;48.180;16.420;2023-06-26T07:17:35;99835.81;;;43.64;19.51
48964;BME280;34776;48.180;16.420;2023-06-26T07:20:01;99837.84;;;43.34;19.33
48964;BME280;34776;48.180;16.420;2023-06-26T07:22:30;99838.97;;;43.04;18.80
48964;BME280;34776;48.180;16.420;2023-06-26T07:24:55;99841.75;;;44.29;17.82
48964;BME280;34776;48.180;16.420;2023-06-26T07:27:21;99839.31;;;44.23;17.90
48964;BME280;34776;48.180;16.420;2023-06-26T07:29:47;99847.34;;;43.86;17.86
48964;BME280;34776;48.180;16.420;2023-06-26T07:32:12;99838.09;;;43.37;18.30
48964;BME280;34776;48.180;16.420;2023-06-26T07:34:38;99837.88;;;43.82;18.25
48964;BME280;34776;48.180;16.420;2023-06-26T07:37:03;99835.75;;;45.07;17.15
48964;BME280;34776;48.180;16.420;2023-06-26T07:39:29;99838.44;;;44.79;17.16
48964;BME280;34776;48.180;16.420;2023-06-26T07:41:55;99842.69;;;43.76;17.78
48964;BME280;34776;48.180;16.420;2023-06-26T07:44:21;99842.00;;;43.66;17.82
48964;BME280;34776;48.180;16.420;2023-06-26T07:46:47;99840.81;;;43.43;17.86
48964;BME280;34776;48.180;16.420;2023-06-26T07:49:12;99842.88;;;43.61;17.71
48964;BME280;34776;48.180;16.420;2023-06-26T07:51:37;99839.47;;;44.31;17.00
48964;BME280;34776;48.180;16.420;2023-06-26T07:54:03;99835.25;;;45.05;16.21
48964;BME280;34776;48.180;16.420;2023-06-26T07:56:28;99834.91;;;45.39;15.91
48964;BME280;34776;48.180;16.420;2023-06-26T07:58:54;99833.56;;;45.04;16.97
48964;BME280;34776;48.180;16.420;2023-06-26T08:01:19;99837.63;;;45.72;15.80
48964;BME280;34776;48.180;16.420;2023-06-26T08:03:45;99835.22;;;44.72;16.05
48964;BME280;34776;48.180;16.420;2023-06-26T08:06:10;99843.34;;;44.35;16.29
48964;BME280;34776;48.180;16.420;2023-06-26T08:08:35;99837.66;;;44.22;16.69
48964;BME280;34776;48.180;16.420;2023-06-26T08:11:01;99841.94;;;44.71;16.27
48964;BME280;34776;48.180;16.420;2023-06-26T08:13:26;99830.88;;;45.12;15.59
48964;BME280;34776;48.180;16.420;2023-06-26T08:15:51;99824.25;;;45.22;15.56
48964;BME280;34776;48.180;16.420;2023-06-26T08:18:18;99829.41;;;45.15;15.58
48964;BME280;34776;48.180;16.420;2023-06-26T08:20:43;99827.59;;;44.58;15.85
48964;BME280;34776;48.180;16.420;2023-06-26T08:23:08;99828.88;;;45.46;15.18
48964;BME280;34776;48.180;16.420;2023-06-26T08:25:34;99833.44;;;45.42;15.37
48964;BME280;34776;48.180;16.420;2023-06-26T08:27:59;99836.44;;;44.85;15.34
48964;BME280;34776;48.180;16.420;2023-06-26T08:30:24;99836.75;;;44.26;15.90
48964;BME280;34776;48.180;16.420;2023-06-26T08:32:54;99829.97;;;44.84;15.41
48964;BME280;34776;48.180;16.420;2023-06-26T08:35:19;99825.44;;;45.49;14.85
48964;BME280;34776;48.180;16.420;2023-06-26T08:37:45;99835.25;;;46.29;14.72
48964;BME280;34776;48.180;16.420;2023-06-26T08:40:10;99824.84;;;46.89;14.01
48964;BME280;34776;48.180;16.420;2023-06-26T08:42:37;99820.03;;;46.89;14.13
48964;BME280;34776;48.180;16.420;2023-06-26T08:45:02;99819.72;;;45.82;14.73
48964;BME280;34776;48.180;16.420;2023-06-26T08:47:29;99818.78;;;44.98;15.48
48964;BME280;34776;48.180;16.420;2023-06-26T08:50:04;99810.13;;;44.81;15.29
48964;BME280;34776;48.180;16.420;2023-06-26T08:52:37;99817.59;;;44.14;15.69
48964;BME280;34776;48.180;16.420;2023-06-26T08:55:09;99807.88;;;44.64;15.81
48964;BME280;34776;48.180;16.420;2023-06-26T08:57:35;99813.16;;;43.41;16.29
48964;BME280;34776;48.180;16.420;2023-06-26T09:00:02;99814.97;;;43.99;16.28
48964;BME280;34776;48.180;16.420;2023-06-26T09:02:28;99813.13;;;44.84;15.41
48964;BME280;34776;48.180;16.420;2023-06-26T09:04:53;99803.50;;;44.57;15.32
48964;BME280;34776;48.180;16.420;2023-06-26T09:07:19;99804.28;;;44.06;16.02
48964;BME280;34776;48.180;16.420;2023-06-26T09:09:44;99804.41;;;43.48;16.20
48964;BME280;34776;48.180;16.420;2023-06-26T09:12:10;99790.53;;;43.86;16.47
48964;BME280;34776;48.180;16.420;2023-06-26T09:14:36;99792.50;;;44.61;15.78
48964;BME280;34776;48.180;16.420;2023-06-26T09:17:02;99792.41;;;44.66;15.35
48964;BME280;34776;48.180;16.420;2023-06-26T09:19:27;99795.88;;;44.25;15.95
48964;BME280;34776;48.180;16.420;2023-06-26T09:21:54;99778.56;;;44.56;15.36
48964;BME280;34776;48.180;16.420;2023-06-26T09:24:19;99774.91;;;44.74;15.45
48964;BME280;34776;48.180;16.420;2023-06-26T09:26:46;99789.69;;;43.66;16.20
48964;BME280;34776;48.180;16.420;2023-06-26T09:29:13;99780.47;;;41.99;17.71
48964;BME280;34776;48.180;16.420;2023-06-26T09:31:39;99781.28;;;40.11;19.43
48964;BME280;34776;48.180;16.420;2023-06-26T09:34:05;99773.88;;;38.20;21.40
48964;BME280;34776;48.180;16.420;2023-06-26T09:36:32;99778.91;;;36.33;23.65
48964;BME280;34776;48.180;16.420;2023-06-26T09:39:00;99780.75;;;34.75;25.40
48964;BME280;34776;48.180;16.420;2023-06-26T09:41:26;99781.88;;;33.65;26.77
48964;BME280;34776;48.180;16.420;2023-06-26T09:43:52;99778.81;;;32.86;27.81
48964;BME280;34776;48.180;16.420;2023-06-26T09:46:29;99767.69;;;32.49;28.58
48964;BME280;34776;48.180;16.420;2023-06-26T09:48:59;99767.69;;;32.49;28.58
48964;BME280;34776;48.180;16.420;2023-06-26T09:51:25;99773.66;;;31.63;29.55
48964;BME280;34776;48.180;16.420;2023-06-26T09:53:51;99766.50;;;31.55;29.54
48964;BME280;34776;48.180;16.420;2023-06-26T09:56:17;99757.63;;;31.53;30.16
48964;BME280;34776;48.180;16.420;2023-06-26T09:58:43;99755.78;;;31.33;30.54
48964;BME280;34776;48.180;16.420;2023-06-26T10:01:09;99755.63;;;31.08;30.87
48964;BME280;34776;48.180;16.420;2023-06-26T10:03:35;99751.19;;;31.01;30.85
48964;BME280;34776;48.180;16.420;2023-06-26T10:06:02;99754.97;;;31.13;30.82
48964;BME280;34776;48.180;16.420;2023-06-26T10:08:28;99754.31;;;31.24;30.50
48964;BME280;34776;48.180;16.420;2023-06-26T10:10:56;99751.81;;;31.03;31.11
48964;BME280;34776;48.180;16.420;2023-06-26T10:13:26;99750.16;;;30.75;31.07
48964;BME280;34776;48.180;16.420;2023-06-26T10:15:53;99748.22;;;30.82;31.67
48964;BME280;34776;48.180;16.420;2023-06-26T10:18:21;99750.38;;;30.93;31.22
48964;BME280;34776;48.180;16.420;2023-06-26T10:20:51;99733.69;;;31.02;31.66
48964;BME280;34776;48.180;16.420;2023-06-26T10:23:19;99739.16;;;30.95;31.55
48964;BME280;34776;48.180;16.420;2023-06-26T10:25:48;99739.19;;;31.02;31.28
48964;BME280;34776;48.180;16.420;2023-06-26T10:28:14;99736.19;;;31.03;31.12
48964;BME280;34776;48.180;16.420;2023-06-26T10:30:41;99728.84;;;30.90;31.39
48964;BME280;34776;48.180;16.420;2023-06-26T10:33:09;99729.88;;;31.03;31.72
48964;BME280;34776;48.180;16.420;2023-06-26T10:35:42;99720.78;;;31.09;31.45
48964;BME280;34776;48.180;16.420;2023-06-26T10:38:07;99718.91;;;31.03;31.58
48964;BME280;34776;48.180;16.420;2023-06-26T10:40:44;99721.44;;;31.04;31.12
48964;BME280;34776;48.180;16.420;2023-06-26T10:43:12;99725.06;;;30.91;31.16
48964;BME280;34776;48.180;16.420;2023-06-26T10:45:47;99717.44;;;30.93;31.45
48964;BME280;34776;48.180;16.420;2023-06-26T10:48:17;99720.19;;;30.87;31.68
48964;BME280;34776;48.180;16.420;2023-06-26T10:50:43;99716.38;;;30.94;32.31
48964;BME280;34776;48.180;16.420;2023-06-26T10:56:46;99709.41;;;32.02;30.37
48964;BME280;34776;48.180;16.420;2023-06-26T11:01:42;99709.22;;;32.61;29.49
48964;BME280;34776;48.180;16.420;2023-06-26T11:04:07;99716.47;;;34.03;27.71
48964;BME280;34776;48.180;16.420;2023-06-26T11:06:34;99712.09;;;35.55;25.66
48964;BME280;34776;48.180;16.420;2023-06-26T11:09:06;99717.63;;;35.55;25.21
48964;BME280;34776;48.180;16.420;2023-06-26T11:14:16;99711.13;;;35.21;25.55
48964;BME280;34776;48.180;16.420;2023-06-26T11:16:42;99712.44;;;34.59;26.74
48964;BME280;34776;48.180;16.420;2023-06-26T11:19:09;99714.09;;;33.76;27.02
48964;BME280;34776;48.180;16.420;2023-06-26T11:21:37;99703.03;;;33.09;27.62
48964;BME280;34776;48.180;16.420;2023-06-26T11:24:04;99701.75;;;32.86;28.56
48964;BME280;34776;48.180;16.420;2023-06-26T11:26:31;99704.78;;;32.60;28.25
48964;BME280;34776;48.180;16.420;2023-06-26T11:29:02;99708.44;;;32.53;28.83
48964;BME280;34776;48.180;16.420;2023-06-26T11:34:00;99705.13;;;32.38;28.99
48964;BME280;34776;48.180;16.420;2023-06-26T11:36:26;99710.81;;;32.43;29.83
48964;BME280;34776;48.180;16.420;2023-06-26T11:38:55;99701.69;;;32.49;28.93
48964;BME280;34776;48.180;16.420;2023-06-26T11:41:28;99700.75;;;32.62;29.17
48964;BME280;34776;48.180;16.420;2023-06-26T11:43:54;99703.81;;;32.72;28.79
48964;BME280;34776;48.180;16.420;2023-06-26T11:46:20;99705.84;;;32.59;29.13
48964;BME280;34776;48.180;16.420;2023-06-26T11:48:47;99700.88;;;32.42;29.05
48964;BME280;34776;48.180;16.420;2023-06-26T11:51:15;99702.72;;;32.55;28.95
48964;BME280;34776;48.180;16.420;2023-06-26T11:53:42;99700.44;;;32.45;28.86
48964;BME280;34776;48.180;16.420;2023-06-26T11:56:12;99697.22;;;32.48;28.45
48964;BME280;34776;48.180;16.420;2023-06-26T12:01:30;99697.00;;;32.50;29.41
48964;BME280;34776;48.180;16.420;2023-06-26T12:03:59;99685.53;;;32.60;29.16
48964;BME280;34776;48.180;16.420;2023-06-26T12:06:29;99686.06;;;32.43;29.46
48964;BME280;34776;48.180;16.420;2023-06-26T12:08:56;99686.50;;;32.40;29.32
48964;BME280;34776;48.180;16.420;2023-06-26T12:11:23;99687.31;;;32.47;29.02
48964;BME280;34776;48.180;16.420;2023-06-26T12:13:50;99682.03;;;32.71;28.87
48964;BME280;34776;48.180;16.420;2023-06-26T12:16:16;99679.56;;;32.63;28.76
48964;BME280;34776;48.180;16.420;2023-06-26T12:18:41;99679.34;;;32.39;28.87
48964;BME280;34776;48.180;16.420;2023-06-26T12:21:07;99678.16;;;32.28;28.87
48964;BME280;34776;48.180;16.420;2023-06-26T12:23:33;99675.34;;;32.35;29.06
48964;BME280;34776;48.180;16.420;2023-06-26T12:26:16;99674.56;;;32.53;29.42
48964;BME280;34776;48.180;16.420;2023-06-26T12:28:44;99666.13;;;32.73;28.66
48964;BME280;34776;48.180;16.420;2023-06-26T12:31:14;99669.72;;;32.73;28.54
48964;BME280;34776;48.180;16.420;2023-06-26T12:33:39;99668.06;;;32.72;28.89
48964;BME280;34776;48.180;16.420;2023-06-26T12:36:04;99663.19;;;32.93;28.52
48964;BME280;34776;48.180;16.420;2023-06-26T12:38:33;99658.47;;;33.19;28.07
48964;BME280;34776;48.180;16.420;2023-06-26T12:40:58;99659.38;;;33.31;27.69
48964;BME280;34776;48.180;16.420;2023-06-26T12:43:25;99647.34;;;33.44;27.36
48964;BME280;34776;48.180;16.420;2023-06-26T12:45:55;99646.63;;;33.48;27.41
48964;BME280;34776;48.180;16.420;2023-06-26T12:48:21;99648.78;;;33.46;27.56
48964;BME280;34776;48.180;16.420;2023-06-26T12:50:47;99652.56;;;33.33;27.95
48964;BME280;34776;48.180;16.420;2023-06-26T12:53:13;99640.19;;;33.24;28.02
48964;BME280;34776;48.180;16.420;2023-06-26T12:55:39;99640.03;;;33.19;28.16
48964;BME280;34776;48.180;16.420;2023-06-26T12:58:04;99653.66;;;33.14;27.99
48964;BME280;34776;48.180;16.420;2023-06-26T13:00:29;99641.41;;;33.10;27.95
48964;BME280;34776;48.180;16.420;2023-06-26T13:02:57;99639.84;;;33.32;27.96
48964;BME280;34776;48.180;16.420;2023-06-26T13:05:23;99644.16;;;33.59;27.91